sensor_id;sensor_type;location;lat;lon;timestamp;P1;durP1;ratioP1;P2;durP2;ratioP2
52742;SDS011;55583;53.012;6.556;2023-04-25T00:01:36;22.17;;;5.50;;
52742;SDS011;55583;53.012;6.556;2023-04-25T00:04:03;34.08;;;6.85;;
52742;SDS011;55583;53.012;6.556;2023-04-25T00:06:31;26.52;;;4.75;;
52742;SDS011;55583;53.012;6.556;2023-04-25T00:09:01;24.33;;;5.95;;
52742;SDS011;55583;53.012;6.556;2023-04-25T00:11:28;30.90;;;4.68;;
52742;SDS011;55583;53.012;6.556;2023-04-25T00:13:56;28.40;;;5.43;;
52742;SDS011;55583;53.012;6.556;2023-04-25T00:16:22;20.85;;;4.75;;
52742;SDS011;55583;53.012;6.556;2023-04-25T00:18:48;26.23;;;4.53;;
52742;SDS011;55583;53.012;6.556;2023-04-25T00:21:17;21.38;;;4.70;;
52742;SDS011;55583;53.012;6.556;2023-04-25T00:23:44;31.50;;;5.88;;
52742;SDS011;55583;53.012;6.556;2023-04-25T00:26:11;30.00;;;6.15;;
52742;SDS011;55583;53.012;6.556;2023-04-25T00:28:37;21.70;;;5.45;;
52742;SDS011;55583;53.012;6.556;2023-04-25T00:31:02;31.60;;;5.30;;
52742;SDS011;55583;53.012;6.556;2023-04-25T00:33:28;35.28;;;6.05;;
52742;SDS011;55583;53.012;6.556;2023-04-25T00:35:55;24.70;;;4.65;;
52742;SDS011;55583;53.012;6.556;2023-04-25T00:38:21;18.60;;;4.60;;
52742;SDS011;55583;53.012;6.556;2023-04-25T00:40:46;26.13;;;5.40;;
52742;SDS011;55583;53.012;6.556;2023-04-25T00:43:12;24.48;;;4.85;;
52742;SDS011;55583;53.012;6.556;2023-04-25T00:45:38;26.08;;;5.07;;
52742;SDS011;55583;53.012;6.556;2023-04-25T00:48:04;22.27;;;5.15;;
52742;SDS011;55583;53.012;6.556;2023-04-25T00:50:30;19.98;;;4.50;;
52742;SDS011;55583;53.012;6.556;2023-04-25T00:52:58;23.45;;;4.45;;
52742;SDS011;55583;53.012;6.556;2023-04-25T00:55:23;30.00;;;4.95;;
52742;SDS011;55583;53.012;6.556;2023-04-25T00:57:50;40.80;;;5.03;;
52742;SDS011;55583;53.012;6.556;2023-04-25T01:00:15;27.52;;;6.00;;
52742;SDS011;55583;53.012;6.556;2023-04-25T01:02:42;20.30;;;4.35;;
52742;SDS011;55583;53.012;6.556;2023-04-25T01:05:09;22.88;;;4.80;;
52742;SDS011;55583;53.012;6.556;2023-04-25T01:07:35;27.20;;;6.10;;
52742;SDS011;55583;53.012;6.556;2023-04-25T01:10:01;19.83;;;5.97;;
52742;SDS011;55583;53.012;6.556;2023-04-25T01:12:27;17.33;;;5.07;;
52742;SDS011;55583;53.012;6.556;2023-04-25T01:14:53;30.60;;;4.43;;
52742;SDS011;55583;53.012;6.556;2023-04-25T01:17:20;26.27;;;4.32;;
52742;SDS011;55583;53.012;6.556;2023-04-25T01:19:46;28.75;;;4.10;;
52742;SDS011;55583;53.012;6.556;2023-04-25T01:22:13;18.58;;;4.43;;
52742;SDS011;55583;53.012;6.556;2023-04-25T01:24:39;35.03;;;5.07;;
52742;SDS011;55583;53.012;6.556;2023-04-25T01:27:05;29.65;;;4.55;;
52742;SDS011;55583;53.012;6.556;2023-04-25T01:29:32;13.38;;;3.85;;
52742;SDS011;55583;53.012;6.556;2023-04-25T01:31:58;24.90;;;4.10;;
52742;SDS011;55583;53.012;6.556;2023-04-25T01:34:24;25.35;;;4.07;;
52742;SDS011;55583;53.012;6.556;2023-04-25T01:36:50;20.45;;;3.78;;
52742;SDS011;55583;53.012;6.556;2023-04-25T01:39:17;21.75;;;4.15;;
52742;SDS011;55583;53.012;6.556;2023-04-25T01:41:42;23.83;;;4.32;;
52742;SDS011;55583;53.012;6.556;2023-04-25T01:44:08;17.45;;;3.55;;
52742;SDS011;55583;53.012;6.556;2023-04-25T01:46:34;17.73;;;3.72;;
52742;SDS011;55583;53.012;6.556;2023-04-25T01:49:00;17.63;;;4.07;;
52742;SDS011;55583;53.012;6.556;2023-04-25T01:51:26;28.00;;;4.05;;
52742;SDS011;55583;53.012;6.556;2023-04-25T01:53:52;20.52;;;4.63;;
52742;SDS011;55583;53.012;6.556;2023-04-25T01:56:18;27.77;;;4.20;;
52742;SDS011;55583;53.012;6.556;2023-04-25T01:58:45;26.50;;;3.95;;
52742;SDS011;55583;53.012;6.556;2023-04-25T02:01:11;25.40;;;4.18;;
52742;SDS011;55583;53.012;6.556;2023-04-25T02:03:36;19.30;;;4.30;;
52742;SDS011;55583;53.012;6.556;2023-04-25T02:06:02;19.13;;;3.72;;
52742;SDS011;55583;53.012;6.556;2023-04-25T02:08:28;21.55;;;4.32;;
52742;SDS011;55583;53.012;6.556;2023-04-25T02:10:53;19.48;;;3.70;;
52742;SDS011;55583;53.012;6.556;2023-04-25T02:13:19;24.42;;;5.05;;
52742;SDS011;55583;53.012;6.556;2023-04-25T02:15:45;25.13;;;6.45;;
52742;SDS011;55583;53.012;6.556;2023-04-25T02:18:10;17.80;;;3.95;;
52742;SDS011;55583;53.012;6.556;2023-04-25T02:20:36;20.25;;;3.95;;
52742;SDS011;55583;53.012;6.556;2023-04-25T02:23:02;25.30;;;3.60;;
52742;SDS011;55583;53.012;6.556;2023-04-25T02:25:28;26.95;;;3.42;;
52742;SDS011;55583;53.012;6.556;2023-04-25T02:27:53;26.80;;;3.78;;
52742;SDS011;55583;53.012;6.556;2023-04-25T02:30:19;18.77;;;4.25;;
52742;SDS011;55583;53.012;6.556;2023-04-25T02:32:45;23.70;;;3.85;;
52742;SDS011;55583;53.012;6.556;2023-04-25T02:35:11;23.05;;;3.92;;
52742;SDS011;55583;53.012;6.556;2023-04-25T02:37:37;25.52;;;3.85;;
52742;SDS011;55583;53.012;6.556;2023-04-25T02:40:03;24.25;;;4.20;;
52742;SDS011;55583;53.012;6.556;2023-04-25T02:42:30;24.98;;;4.43;;
52742;SDS011;55583;53.012;6.556;2023-04-25T02:44:55;25.42;;;3.92;;
52742;SDS011;55583;53.012;6.556;2023-04-25T02:47:21;28.48;;;4.28;;
52742;SDS011;55583;53.012;6.556;2023-04-25T02:49:47;25.83;;;5.20;;
52742;SDS011;55583;53.012;6.556;2023-04-25T02:52:12;28.30;;;4.20;;
52742;SDS011;55583;53.012;6.556;2023-04-25T02:54:39;17.50;;;4.07;;
52742;SDS011;55583;53.012;6.556;2023-04-25T02:57:05;23.70;;;3.92;;
52742;SDS011;55583;53.012;6.556;2023-04-25T02:59:31;24.48;;;4.18;;
52742;SDS011;55583;53.012;6.556;2023-04-25T03:01:57;25.33;;;3.75;;
52742;SDS011;55583;53.012;6.556;2023-04-25T03:04:22;31.30;;;3.92;;
52742;SDS011;55583;53.012;6.556;2023-04-25T03:06:51;22.00;;;3.42;;
52742;SDS011;55583;53.012;6.556;2023-04-25T03:09:18;19.67;;;3.88;;
52742;SDS011;55583;53.012;6.556;2023-04-25T03:11:44;19.02;;;3.38;;
52742;SDS011;55583;53.012;6.556;2023-04-25T03:14:10;15.25;;;3.70;;
52742;SDS011;55583;53.012;6.556;2023-04-25T03:16:37;21.40;;;3.72;;
52742;SDS011;55583;53.012;6.556;2023-04-25T03:19:03;20.00;;;3.33;;
52742;SDS011;55583;53.012;6.556;2023-04-25T03:21:29;25.65;;;4.82;;
52742;SDS011;55583;53.012;6.556;2023-04-25T03:23:56;21.35;;;2.63;;
52742;SDS011;55583;53.012;6.556;2023-04-25T03:26:22;20.88;;;3.88;;
52742;SDS011;55583;53.012;6.556;2023-04-25T03:28:48;25.85;;;3.97;;
52742;SDS011;55583;53.012;6.556;2023-04-25T03:31:14;13.75;;;3.70;;
52742;SDS011;55583;53.012;6.556;2023-04-25T03:33:39;15.88;;;2.95;;
52742;SDS011;55583;53.012;6.556;2023-04-25T03:36:05;27.92;;;3.63;;
52742;SDS011;55583;53.012;6.556;2023-04-25T03:38:31;20.50;;;2.85;;
52742;SDS011;55583;53.012;6.556;2023-04-25T03:40:57;23.55;;;3.75;;
52742;SDS011;55583;53.012;6.556;2023-04-25T03:43:23;15.85;;;2.35;;
52742;SDS011;55583;53.012;6.556;2023-04-25T03:45:48;17.38;;;3.33;;
52742;SDS011;55583;53.012;6.556;2023-04-25T03:48:14;19.92;;;2.80;;
52742;SDS011;55583;53.012;6.556;2023-04-25T03:50:40;16.17;;;2.88;;
52742;SDS011;55583;53.012;6.556;2023-04-25T03:53:05;18.08;;;3.67;;
52742;SDS011;55583;53.012;6.556;2023-04-25T03:55:31;12.40;;;2.35;;
52742;SDS011;55583;53.012;6.556;2023-04-25T03:57:57;20.27;;;2.83;;
52742;SDS011;55583;53.012;6.556;2023-04-25T04:00:23;17.95;;;3.17;;
52742;SDS011;55583;53.012;6.556;2023-04-25T04:02:49;9.00;;;1.98;;
52742;SDS011;55583;53.012;6.556;2023-04-25T04:05:15;7.25;;;2.20;;
52742;SDS011;55583;53.012;6.556;2023-04-25T04:07:41;9.25;;;2.10;;
52742;SDS011;55583;53.012;6.556;2023-04-25T04:10:08;13.05;;;2.47;;
52742;SDS011;55583;53.012;6.556;2023-04-25T04:12:34;8.82;;;2.10;;
52742;SDS011;55583;53.012;6.556;2023-04-25T04:15:01;11.75;;;3.10;;
52742;SDS011;55583;53.012;6.556;2023-04-25T04:17:28;8.85;;;1.90;;
52742;SDS011;55583;53.012;6.556;2023-04-25T04:19:55;11.40;;;2.25;;
52742;SDS011;55583;53.012;6.556;2023-04-25T04:22:21;12.73;;;2.63;;
52742;SDS011;55583;53.012;6.556;2023-04-25T04:24:47;10.73;;;2.42;;
52742;SDS011;55583;53.012;6.556;2023-04-25T04:27:13;11.65;;;2.45;;
52742;SDS011;55583;53.012;6.556;2023-04-25T04:29:38;11.80;;;3.55;;
52742;SDS011;55583;53.012;6.556;2023-04-25T04:32:04;5.10;;;1.80;;
52742;SDS011;55583;53.012;6.556;2023-04-25T04:34:30;9.98;;;1.95;;
52742;SDS011;55583;53.012;6.556;2023-04-25T04:36:56;14.85;;;2.63;;
52742;SDS011;55583;53.012;6.556;2023-04-25T04:39:22;15.70;;;2.40;;
52742;SDS011;55583;53.012;6.556;2023-04-25T04:41:47;21.55;;;3.15;;
52742;SDS011;55583;53.012;6.556;2023-04-25T04:44:13;11.48;;;2.30;;
52742;SDS011;55583;53.012;6.556;2023-04-25T04:46:39;14.18;;;2.95;;
52742;SDS011;55583;53.012;6.556;2023-04-25T04:49:13;8.23;;;1.83;;
52742;SDS011;55583;53.012;6.556;2023-04-25T04:51:42;9.18;;;2.05;;
52742;SDS011;55583;53.012;6.556;2023-04-25T04:54:09;9.30;;;2.15;;
52742;SDS011;55583;53.012;6.556;2023-04-25T04:56:35;10.65;;;2.03;;
52742;SDS011;55583;53.012;6.556;2023-04-25T04:59:01;6.45;;;2.00;;
52742;SDS011;55583;53.012;6.556;2023-04-25T05:01:27;17.05;;;3.03;;
52742;SDS011;55583;53.012;6.556;2023-04-25T05:03:55;6.45;;;2.33;;
52742;SDS011;55583;53.012;6.556;2023-04-25T05:06:26;17.90;;;2.40;;
52742;SDS011;55583;53.012;6.556;2023-04-25T05:08:54;15.13;;;3.20;;
52742;SDS011;55583;53.012;6.556;2023-04-25T05:11:20;16.17;;;2.65;;
52742;SDS011;55583;53.012;6.556;2023-04-25T05:13:46;8.57;;;1.90;;
52742;SDS011;55583;53.012;6.556;2023-04-25T05:16:12;15.75;;;2.28;;
52742;SDS011;55583;53.012;6.556;2023-04-25T05:18:39;8.25;;;1.92;;
52742;SDS011;55583;53.012;6.556;2023-04-25T05:21:04;10.02;;;2.20;;
52742;SDS011;55583;53.012;6.556;2023-04-25T05:23:31;13.00;;;2.55;;
52742;SDS011;55583;53.012;6.556;2023-04-25T05:25:57;13.73;;;2.67;;
52742;SDS011;55583;53.012;6.556;2023-04-25T05:28:24;8.13;;;2.45;;
52742;SDS011;55583;53.012;6.556;2023-04-25T05:30:49;20.38;;;3.53;;
52742;SDS011;55583;53.012;6.556;2023-04-25T05:33:15;15.60;;;3.30;;
52742;SDS011;55583;53.012;6.556;2023-04-25T05:35:41;17.77;;;2.58;;
52742;SDS011;55583;53.012;6.556;2023-04-25T05:38:07;16.67;;;2.40;;
52742;SDS011;55583;53.012;6.556;2023-04-25T05:40:33;15.52;;;2.65;;
52742;SDS011;55583;53.012;6.556;2023-04-25T05:42:58;14.10;;;2.33;;
52742;SDS011;55583;53.012;6.556;2023-04-25T05:45:24;12.13;;;2.97;;
52742;SDS011;55583;53.012;6.556;2023-04-25T05:47:49;10.25;;;2.20;;
52742;SDS011;55583;53.012;6.556;2023-04-25T05:50:15;14.30;;;2.67;;
52742;SDS011;55583;53.012;6.556;2023-04-25T05:52:41;15.05;;;2.85;;
52742;SDS011;55583;53.012;6.556;2023-04-25T05:55:06;16.33;;;3.97;;
52742;SDS011;55583;53.012;6.556;2023-04-25T05:57:32;10.40;;;2.53;;
52742;SDS011;55583;53.012;6.556;2023-04-25T05:59:58;10.88;;;2.17;;
52742;SDS011;55583;53.012;6.556;2023-04-25T06:02:24;11.35;;;3.40;;
52742;SDS011;55583;53.012;6.556;2023-04-25T06:04:50;14.25;;;3.03;;
52742;SDS011;55583;53.012;6.556;2023-04-25T06:07:16;17.08;;;3.17;;
52742;SDS011;55583;53.012;6.556;2023-04-25T06:09:42;10.25;;;2.00;;
52742;SDS011;55583;53.012;6.556;2023-04-25T06:12:08;12.80;;;2.70;;
52742;SDS011;55583;53.012;6.556;2023-04-25T06:14:34;17.45;;;3.35;;
52742;SDS011;55583;53.012;6.556;2023-04-25T06:17:00;16.75;;;2.70;;
52742;SDS011;55583;53.012;6.556;2023-04-25T06:19:31;18.00;;;2.72;;
52742;SDS011;55583;53.012;6.556;2023-04-25T06:21:58;12.18;;;3.30;;
52742;SDS011;55583;53.012;6.556;2023-04-25T06:24:23;15.27;;;3.10;;
52742;SDS011;55583;53.012;6.556;2023-04-25T06:26:49;18.20;;;2.92;;
52742;SDS011;55583;53.012;6.556;2023-04-25T06:29:15;9.60;;;2.25;;
52742;SDS011;55583;53.012;6.556;2023-04-25T06:31:40;17.52;;;2.65;;
52742;SDS011;55583;53.012;6.556;2023-04-25T06:34:06;16.88;;;2.35;;
52742;SDS011;55583;53.012;6.556;2023-04-25T06:36:32;9.57;;;3.13;;
52742;SDS011;55583;53.012;6.556;2023-04-25T06:38:57;10.70;;;2.28;;
52742;SDS011;55583;53.012;6.556;2023-04-25T06:41:23;15.63;;;2.22;;
52742;SDS011;55583;53.012;6.556;2023-04-25T06:43:48;7.85;;;2.30;;
52742;SDS011;55583;53.012;6.556;2023-04-25T06:46:14;13.27;;;2.08;;
52742;SDS011;55583;53.012;6.556;2023-04-25T06:48:40;5.38;;;1.48;;
52742;SDS011;55583;53.012;6.556;2023-04-25T06:51:05;13.02;;;2.47;;
52742;SDS011;55583;53.012;6.556;2023-04-25T06:53:31;9.02;;;1.85;;
52742;SDS011;55583;53.012;6.556;2023-04-25T06:55:59;7.18;;;1.85;;
52742;SDS011;55583;53.012;6.556;2023-04-25T06:58:25;13.15;;;1.98;;
52742;SDS011;55583;53.012;6.556;2023-04-25T07:00:51;10.18;;;2.17;;
52742;SDS011;55583;53.012;6.556;2023-04-25T07:03:17;11.75;;;2.08;;
52742;SDS011;55583;53.012;6.556;2023-04-25T07:05:42;11.30;;;2.72;;
52742;SDS011;55583;53.012;6.556;2023-04-25T07:08:08;12.40;;;2.75;;
52742;SDS011;55583;53.012;6.556;2023-04-25T07:10:33;12.02;;;1.90;;
52742;SDS011;55583;53.012;6.556;2023-04-25T07:13:00;12.48;;;2.20;;
52742;SDS011;55583;53.012;6.556;2023-04-25T07:15:25;13.48;;;2.45;;
52742;SDS011;55583;53.012;6.556;2023-04-25T07:17:51;8.27;;;2.17;;
52742;SDS011;55583;53.012;6.556;2023-04-25T07:20:16;12.45;;;2.05;;
52742;SDS011;55583;53.012;6.556;2023-04-25T07:22:42;9.82;;;1.90;;
52742;SDS011;55583;53.012;6.556;2023-04-25T07:25:08;10.38;;;1.75;;
52742;SDS011;55583;53.012;6.556;2023-04-25T07:27:34;8.60;;;1.90;;
52742;SDS011;55583;53.012;6.556;2023-04-25T07:30:00;7.88;;;1.58;;
52742;SDS011;55583;53.012;6.556;2023-04-25T07:32:25;4.65;;;1.40;;
52742;SDS011;55583;53.012;6.556;2023-04-25T07:34:51;8.20;;;1.75;;
52742;SDS011;55583;53.012;6.556;2023-04-25T07:37:17;12.40;;;2.05;;
52742;SDS011;55583;53.012;6.556;2023-04-25T07:39:44;8.50;;;2.20;;
52742;SDS011;55583;53.012;6.556;2023-04-25T07:42:11;5.82;;;1.60;;
52742;SDS011;55583;53.012;6.556;2023-04-25T07:44:37;5.65;;;1.30;;
52742;SDS011;55583;53.012;6.556;2023-04-25T07:47:08;6.43;;;2.03;;
52742;SDS011;55583;53.012;6.556;2023-04-25T07:49:37;12.10;;;2.33;;
52742;SDS011;55583;53.012;6.556;2023-04-25T07:52:03;10.10;;;1.98;;
52742;SDS011;55583;53.012;6.556;2023-04-25T07:54:31;13.35;;;1.83;;
52742;SDS011;55583;53.012;6.556;2023-04-25T07:56:57;11.93;;;2.00;;
52742;SDS011;55583;53.012;6.556;2023-04-25T07:59:23;7.63;;;1.85;;
52742;SDS011;55583;53.012;6.556;2023-04-25T08:01:49;12.05;;;1.58;;
52742;SDS011;55583;53.012;6.556;2023-04-25T08:04:15;11.95;;;2.28;;
52742;SDS011;55583;53.012;6.556;2023-04-25T08:06:40;7.68;;;1.70;;
52742;SDS011;55583;53.012;6.556;2023-04-25T08:09:06;7.65;;;2.03;;
52742;SDS011;55583;53.012;6.556;2023-04-25T08:11:33;11.05;;;1.55;;
52742;SDS011;55583;53.012;6.556;2023-04-25T08:13:59;5.82;;;1.23;;
52742;SDS011;55583;53.012;6.556;2023-04-25T08:16:25;6.90;;;1.90;;
52742;SDS011;55583;53.012;6.556;2023-04-25T08:18:50;10.82;;;2.42;;
52742;SDS011;55583;53.012;6.556;2023-04-25T08:21:16;5.70;;;1.42;;
52742;SDS011;55583;53.012;6.556;2023-04-25T08:23:42;9.18;;;2.10;;
52742;SDS011;55583;53.012;6.556;2023-04-25T08:26:07;8.15;;;1.95;;
52742;SDS011;55583;53.012;6.556;2023-04-25T08:28:33;10.73;;;2.20;;
52742;SDS011;55583;53.012;6.556;2023-04-25T08:30:59;5.07;;;1.98;;
52742;SDS011;55583;53.012;6.556;2023-04-25T08:33:24;9.50;;;1.67;;
52742;SDS011;55583;53.012;6.556;2023-04-25T08:35:50;9.80;;;1.70;;
52742;SDS011;55583;53.012;6.556;2023-04-25T08:38:17;5.72;;;1.48;;
52742;SDS011;55583;53.012;6.556;2023-04-25T08:40:42;5.60;;;1.50;;
52742;SDS011;55583;53.012;6.556;2023-04-25T08:43:09;8.00;;;2.15;;
52742;SDS011;55583;53.012;6.556;2023-04-25T08:45:39;3.78;;;1.40;;
52742;SDS011;55583;53.012;6.556;2023-04-25T08:48:10;4.00;;;1.00;;
52742;SDS011;55583;53.012;6.556;2023-04-25T08:50:53;4.43;;;1.10;;
52742;SDS011;55583;53.012;6.556;2023-04-25T08:53:29;12.52;;;1.23;;
52742;SDS011;55583;53.012;6.556;2023-04-25T08:55:57;1.80;;;0.82;;
52742;SDS011;55583;53.012;6.556;2023-04-25T08:58:24;7.07;;;1.50;;
52742;SDS011;55583;53.012;6.556;2023-04-25T09:00:50;4.55;;;1.23;;
52742;SDS011;55583;53.012;6.556;2023-04-25T09:03:19;4.93;;;1.08;;
52742;SDS011;55583;53.012;6.556;2023-04-25T09:05:44;2.45;;;1.30;;
52742;SDS011;55583;53.012;6.556;2023-04-25T09:08:10;2.60;;;1.02;;
52742;SDS011;55583;53.012;6.556;2023-04-25T09:10:36;7.95;;;1.30;;
52742;SDS011;55583;53.012;6.556;2023-04-25T09:13:06;5.07;;;1.40;;
52742;SDS011;55583;53.012;6.556;2023-04-25T09:15:46;7.63;;;1.65;;
52742;SDS011;55583;53.012;6.556;2023-04-25T09:18:21;7.70;;;1.30;;
52742;SDS011;55583;53.012;6.556;2023-04-25T09:20:55;8.02;;;1.48;;
52742;SDS011;55583;53.012;6.556;2023-04-25T09:23:22;5.53;;;1.30;;
52742;SDS011;55583;53.012;6.556;2023-04-25T09:25:49;6.85;;;1.48;;
52742;SDS011;55583;53.012;6.556;2023-04-25T09:28:16;3.42;;;1.02;;
52742;SDS011;55583;53.012;6.556;2023-04-25T09:30:54;5.70;;;1.00;;
52742;SDS011;55583;53.012;6.556;2023-04-25T09:33:22;10.65;;;1.58;;
52742;SDS011;55583;53.012;6.556;2023-04-25T09:36:07;6.95;;;1.10;;
52742;SDS011;55583;53.012;6.556;2023-04-25T09:38:41;6.20;;;1.13;;
52742;SDS011;55583;53.012;6.556;2023-04-25T09:41:08;3.97;;;1.60;;
52742;SDS011;55583;53.012;6.556;2023-04-25T09:43:35;9.00;;;1.52;;
52742;SDS011;55583;53.012;6.556;2023-04-25T09:46:01;8.63;;;1.77;;
52742;SDS011;55583;53.012;6.556;2023-04-25T09:48:28;4.05;;;1.25;;
52742;SDS011;55583;53.012;6.556;2023-04-25T09:53:36;8.57;;;1.70;;
52742;SDS011;55583;53.012;6.556;2023-04-25T09:56:03;4.93;;;1.27;;
52742;SDS011;55583;53.012;6.556;2023-04-25T09:58:34;11.20;;;2.20;;
52742;SDS011;55583;53.012;6.556;2023-04-25T10:01:01;7.53;;;1.65;;
52742;SDS011;55583;53.012;6.556;2023-04-25T10:03:32;8.35;;;2.00;;
52742;SDS011;55583;53.012;6.556;2023-04-25T10:05:59;8.43;;;1.80;;
52742;SDS011;55583;53.012;6.556;2023-04-25T10:08:31;7.28;;;1.60;;
52742;SDS011;55583;53.012;6.556;2023-04-25T10:11:05;6.70;;;1.58;;
52742;SDS011;55583;53.012;6.556;2023-04-25T10:13:32;20.33;;;3.55;;
52742;SDS011;55583;53.012;6.556;2023-04-25T10:16:00;13.35;;;2.33;;
52742;SDS011;55583;53.012;6.556;2023-04-25T10:18:28;9.75;;;1.80;;
52742;SDS011;55583;53.012;6.556;2023-04-25T10:20:54;14.27;;;2.50;;
52742;SDS011;55583;53.012;6.556;2023-04-25T10:23:21;11.70;;;2.45;;
52742;SDS011;55583;53.012;6.556;2023-04-25T10:25:49;7.57;;;1.90;;
52742;SDS011;55583;53.012;6.556;2023-04-25T10:28:15;7.70;;;1.83;;
52742;SDS011;55583;53.012;6.556;2023-04-25T10:36:10;6.38;;;1.90;;
52742;SDS011;55583;53.012;6.556;2023-04-25T10:38:42;8.43;;;2.05;;
52742;SDS011;55583;53.012;6.556;2023-04-25T10:41:09;7.80;;;2.45;;
52742;SDS011;55583;53.012;6.556;2023-04-25T10:43:36;7.82;;;1.92;;
52742;SDS011;55583;53.012;6.556;2023-04-25T10:48:51;9.80;;;2.00;;
52742;SDS011;55583;53.012;6.556;2023-04-25T10:56:20;8.30;;;1.60;;
52742;SDS011;55583;53.012;6.556;2023-04-25T10:58:47;8.30;;;1.65;;
52742;SDS011;55583;53.012;6.556;2023-04-25T11:01:14;5.70;;;1.80;;
52742;SDS011;55583;53.012;6.556;2023-04-25T11:03:41;7.85;;;1.80;;
52742;SDS011;55583;53.012;6.556;2023-04-25T11:06:22;8.35;;;1.83;;
52742;SDS011;55583;53.012;6.556;2023-04-25T11:08:54;8.65;;;2.20;;
52742;SDS011;55583;53.012;6.556;2023-04-25T11:11:20;12.52;;;2.67;;
52742;SDS011;55583;53.012;6.556;2023-04-25T11:13:49;8.98;;;2.03;;
52742;SDS011;55583;53.012;6.556;2023-04-25T11:16:15;7.38;;;2.05;;
52742;SDS011;55583;53.012;6.556;2023-04-25T11:18:42;10.32;;;2.38;;
52742;SDS011;55583;53.012;6.556;2023-04-25T11:21:08;8.18;;;1.90;;
52742;SDS011;55583;53.012;6.556;2023-04-25T11:23:35;12.77;;;1.95;;
52742;SDS011;55583;53.012;6.556;2023-04-25T11:26:01;6.50;;;1.80;;
52742;SDS011;55583;53.012;6.556;2023-04-25T11:28:28;8.05;;;1.80;;
52742;SDS011;55583;53.012;6.556;2023-04-25T11:30:53;6.20;;;1.67;;
52742;SDS011;55583;53.012;6.556;2023-04-25T11:33:23;7.47;;;1.75;;
52742;SDS011;55583;53.012;6.556;2023-04-25T11:35:50;11.40;;;1.73;;
52742;SDS011;55583;53.012;6.556;2023-04-25T11:38:17;6.47;;;2.00;;
52742;SDS011;55583;53.012;6.556;2023-04-25T11:40:43;8.48;;;2.05;;
52742;SDS011;55583;53.012;6.556;2023-04-25T11:43:09;10.43;;;1.63;;
52742;SDS011;55583;53.012;6.556;2023-04-25T11:45:36;11.25;;;2.42;;
52742;SDS011;55583;53.012;6.556;2023-04-25T11:48:02;6.35;;;1.85;;
52742;SDS011;55583;53.012;6.556;2023-04-25T11:50:28;12.05;;;2.70;;
52742;SDS011;55583;53.012;6.556;2023-04-25T11:52:55;10.48;;;2.28;;
52742;SDS011;55583;53.012;6.556;2023-04-25T11:55:21;4.70;;;1.60;;
52742;SDS011;55583;53.012;6.556;2023-04-25T11:57:48;9.73;;;2.10;;
52742;SDS011;55583;53.012;6.556;2023-04-25T12:00:16;6.60;;;1.70;;
52742;SDS011;55583;53.012;6.556;2023-04-25T12:02:52;10.00;;;2.25;;
52742;SDS011;55583;53.012;6.556;2023-04-25T12:05:18;5.95;;;1.95;;
52742;SDS011;55583;53.012;6.556;2023-04-25T12:07:45;4.32;;;1.33;;
52742;SDS011;55583;53.012;6.556;2023-04-25T12:10:12;4.80;;;1.42;;
52742;SDS011;55583;53.012;6.556;2023-04-25T12:12:43;9.27;;;1.70;;
52742;SDS011;55583;53.012;6.556;2023-04-25T12:15:22;3.88;;;1.58;;
52742;SDS011;55583;53.012;6.556;2023-04-25T12:17:50;4.88;;;2.05;;
52742;SDS011;55583;53.012;6.556;2023-04-25T12:20:18;10.18;;;1.50;;
52742;SDS011;55583;53.012;6.556;2023-04-25T12:22:45;6.55;;;1.77;;
52742;SDS011;55583;53.012;6.556;2023-04-25T12:25:12;7.50;;;1.70;;
52742;SDS011;55583;53.012;6.556;2023-04-25T12:27:39;6.70;;;1.98;;
52742;SDS011;55583;53.012;6.556;2023-04-25T12:30:09;7.65;;;1.60;;
52742;SDS011;55583;53.012;6.556;2023-04-25T12:32:36;3.10;;;1.45;;
52742;SDS011;55583;53.012;6.556;2023-04-25T12:35:03;7.10;;;1.77;;
52742;SDS011;55583;53.012;6.556;2023-04-25T12:37:29;4.65;;;1.27;;
52742;SDS011;55583;53.012;6.556;2023-04-25T12:39:55;7.18;;;1.55;;
52742;SDS011;55583;53.012;6.556;2023-04-25T12:42:21;6.90;;;1.70;;
52742;SDS011;55583;53.012;6.556;2023-04-25T12:44:47;8.40;;;1.80;;
52742;SDS011;55583;53.012;6.556;2023-04-25T12:47:12;8.88;;;1.70;;
52742;SDS011;55583;53.012;6.556;2023-04-25T12:49:38;10.27;;;1.77;;
52742;SDS011;55583;53.012;6.556;2023-04-25T12:52:04;8.85;;;2.70;;
52742;SDS011;55583;53.012;6.556;2023-04-25T12:54:30;8.48;;;2.45;;
52742;SDS011;55583;53.012;6.556;2023-04-25T12:56:56;10.20;;;2.00;;
52742;SDS011;55583;53.012;6.556;2023-04-25T12:59:22;10.77;;;2.05;;
52742;SDS011;55583;53.012;6.556;2023-04-25T13:01:48;10.48;;;2.40;;
52742;SDS011;55583;53.012;6.556;2023-04-25T13:04:14;9.85;;;2.22;;
52742;SDS011;55583;53.012;6.556;2023-04-25T13:06:39;9.77;;;1.90;;
52742;SDS011;55583;53.012;6.556;2023-04-25T13:09:05;9.75;;;2.17;;
52742;SDS011;55583;53.012;6.556;2023-04-25T13:11:31;7.30;;;1.88;;
52742;SDS011;55583;53.012;6.556;2023-04-25T13:13:57;10.95;;;2.20;;
52742;SDS011;55583;53.012;6.556;2023-04-25T13:16:23;8.50;;;2.13;;
52742;SDS011;55583;53.012;6.556;2023-04-25T13:18:48;3.90;;;1.85;;
52742;SDS011;55583;53.012;6.556;2023-04-25T13:21:14;10.23;;;2.13;;
52742;SDS011;55583;53.012;6.556;2023-04-25T13:23:40;13.60;;;2.17;;
52742;SDS011;55583;53.012;6.556;2023-04-25T13:26:07;8.55;;;1.48;;
52742;SDS011;55583;53.012;6.556;2023-04-25T13:28:33;5.53;;;1.90;;
52742;SDS011;55583;53.012;6.556;2023-04-25T13:30:59;6.50;;;2.15;;
52742;SDS011;55583;53.012;6.556;2023-04-25T13:33:24;9.75;;;1.70;;
52742;SDS011;55583;53.012;6.556;2023-04-25T13:35:50;9.55;;;1.83;;
52742;SDS011;55583;53.012;6.556;2023-04-25T13:38:21;3.72;;;1.58;;
52742;SDS011;55583;53.012;6.556;2023-04-25T13:40:47;7.38;;;1.63;;
52742;SDS011;55583;53.012;6.556;2023-04-25T13:43:13;12.55;;;1.83;;
52742;SDS011;55583;53.012;6.556;2023-04-25T13:45:39;6.43;;;1.80;;
52742;SDS011;55583;53.012;6.556;2023-04-25T13:48:05;4.60;;;1.38;;
52742;SDS011;55583;53.012;6.556;2023-04-25T13:50:31;12.40;;;2.03;;
52742;SDS011;55583;53.012;6.556;2023-04-25T13:52:57;10.55;;;1.85;;
52742;SDS011;55583;53.012;6.556;2023-04-25T13:55:22;8.35;;;1.90;;
52742;SDS011;55583;53.012;6.556;2023-04-25T13:57:48;8.43;;;2.00;;
52742;SDS011;55583;53.012;6.556;2023-04-25T14:00:13;9.50;;;2.35;;
52742;SDS011;55583;53.012;6.556;2023-04-25T14:02:40;6.78;;;1.60;;
52742;SDS011;55583;53.012;6.556;2023-04-25T14:05:05;3.85;;;1.27;;
52742;SDS011;55583;53.012;6.556;2023-04-25T14:07:32;5.93;;;1.35;;
52742;SDS011;55583;53.012;6.556;2023-04-25T14:10:00;3.58;;;1.30;;
52742;SDS011;55583;53.012;6.556;2023-04-25T14:12:25;5.20;;;1.55;;
52742;SDS011;55583;53.012;6.556;2023-04-25T14:14:51;3.90;;;1.45;;
52742;SDS011;55583;53.012;6.556;2023-04-25T14:17:18;6.97;;;1.42;;
52742;SDS011;55583;53.012;6.556;2023-04-25T14:19:44;8.88;;;1.77;;
52742;SDS011;55583;53.012;6.556;2023-04-25T14:22:12;4.68;;;1.58;;
52742;SDS011;55583;53.012;6.556;2023-04-25T14:24:39;9.02;;;1.60;;
52742;SDS011;55583;53.012;6.556;2023-04-25T14:27:05;12.55;;;2.60;;
52742;SDS011;55583;53.012;6.556;2023-04-25T14:29:31;7.22;;;2.03;;
52742;SDS011;55583;53.012;6.556;2023-04-25T14:31:56;8.73;;;1.85;;
52742;SDS011;55583;53.012;6.556;2023-04-25T14:34:23;7.68;;;2.33;;
52742;SDS011;55583;53.012;6.556;2023-04-25T14:36:52;7.88;;;2.00;;
52742;SDS011;55583;53.012;6.556;2023-04-25T14:39:18;6.72;;;1.95;;
52742;SDS011;55583;53.012;6.556;2023-04-25T14:41:44;10.98;;;2.65;;
52742;SDS011;55583;53.012;6.556;2023-04-25T14:44:10;9.80;;;2.38;;
52742;SDS011;55583;53.012;6.556;2023-04-25T14:46:36;11.07;;;2.00;;
52742;SDS011;55583;53.012;6.556;2023-04-25T14:49:02;10.25;;;1.92;;
52742;SDS011;55583;53.012;6.556;2023-04-25T14:51:28;5.75;;;2.58;;
52742;SDS011;55583;53.012;6.556;2023-04-25T14:53:54;15.52;;;2.00;;